TimeCET,TemperatureF,Dew PointF,Humidity,Sea Level PressureIn,VisibilityMPH,Wind Direction,Wind SpeedMPH,Gust SpeedMPH,PrecipitationIn,Events,Conditions,WindDirDegrees,DateUTC
12:00 AM,48.2,42.8,82,29.95,6.2,NNW,4.6,-,N/A,,Unknown,340,2012-11-19 23:00:00
12:30 AM,50.0,44.6,82,29.95,6.2,NW,5.8,-,N/A,,Unknown,320,2012-11-19 23:30:00
1:00 AM,51.8,42.8,71,29.95,6.2,NNW,4.6,-,N/A,,Unknown,340,2012-11-20 00:00:00
1:30 AM,50.0,41.0,71,29.95,6.2,NNW,5.8,-,N/A,,Unknown,330,2012-11-20 00:30:00
2:00 AM,50.0,42.8,76,29.95,6.2,NW,5.8,-,N/A,,Unknown,320,2012-11-20 01:00:00
2:30 AM,50.0,41.0,71,29.95,6.2,Variable,2.3,-,N/A,,Unknown,0,2012-11-20 01:30:00
3:00 AM,50.0,41.0,71,29.95,6.2,Calm,Calm,-,N/A,,Unknown,0,2012-11-20 02:00:00
3:30 AM,48.2,41.0,76,29.95,6.2,NW,6.9,-,N/A,,Unknown,310,2012-11-20 02:30:00
4:00 AM,50.0,39.2,66,29.95,5.6,NW,4.6,-,N/A,,Unknown,320,2012-11-20 03:00:00
4:30 AM,48.2,39.2,71,29.95,6.2,NNW,4.6,-,N/A,,Unknown,330,2012-11-20 03:30:00
5:00 AM,48.2,39.2,71,29.95,6.2,NW,5.8,-,N/A,,Unknown,320,2012-11-20 04:00:00
5:30 AM,50.0,39.2,66,29.95,6.2,NW,6.9,-,N/A,,Unknown,310,2012-11-20 04:30:00
6:00 AM,50.0,39.2,66,29.95,6.2,NW,4.6,-,N/A,,Unknown,310,2012-11-20 05:00:00
6:30 AM,48.2,39.2,71,29.95,6.2,NW,8.1,-,N/A,,Unknown,310,2012-11-20 05:30:00
7:00 AM,48.2,39.2,71,29.98,6.2,NW,5.8,-,N/A,,Unknown,320,2012-11-20 06:00:00
7:30 AM,46.4,39.2,76,29.98,6.2,NNW,3.5,-,N/A,,Unknown,330,2012-11-20 06:30:00
8:00 AM,48.2,39.2,71,29.98,6.2,Variable,2.3,-,N/A,,Unknown,0,2012-11-20 07:00:00
8:30 AM,50.0,42.8,76,29.98,6.2,WNW,6.9,-,N/A,,Unknown,300,2012-11-20 07:30:00
9:00 AM,53.6,44.6,72,29.98,6.2,WNW,6.9,-,N/A,,Unknown,300,2012-11-20 08:00:00
9:30 AM,59.0,44.6,59,30.01,6.2,Variable,3.5,-,N/A,,Unknown,0,2012-11-20 08:30:00
10:00 AM,60.8,44.6,55,30.01,6.2,Variable,1.2,-,N/A,,Unknown,0,2012-11-20 09:00:00
10:30 AM,62.6,44.6,52,30.01,6.2,Variable,2.3,-,N/A,,Unknown,0,2012-11-20 09:30:00
11:00 AM,66.2,46.4,49,30.01,6.2,Calm,Calm,-,N/A,,Unknown,0,2012-11-20 10:00:00
11:30 AM,66.2,46.4,49,30.01,6.2,Variable,2.3,-,N/A,,Unknown,0,2012-11-20 10:30:00
12:00 PM,66.2,48.2,52,29.98,6.2,Variable,3.5,-,N/A,,Unknown,0,2012-11-20 11:00:00
12:30 PM,66.2,48.2,52,29.98,6.2,SW,4.6,-,N/A,,Unknown,220,2012-11-20 11:30:00
1:00 PM,64.4,51.8,64,29.98,6.2,SW,10.4,-,N/A,,Unknown,220,2012-11-20 12:00:00
1:30 PM,64.4,53.6,68,29.98,6.2,SW,8.1,-,N/A,,Unknown,220,2012-11-20 12:30:00
2:00 PM,66.2,53.6,64,29.95,6.2,SSW,8.1,-,N/A,,Unknown,210,2012-11-20 13:00:00
2:30 PM,66.2,55.4,68,29.95,6.2,SSW,6.9,-,N/A,,Unknown,210,2012-11-20 13:30:00
3:00 PM,66.2,55.4,68,29.95,6.2,SW,6.9,-,N/A,,Unknown,220,2012-11-20 14:00:00
3:30 PM,64.4,55.4,73,29.95,6.2,SW,9.2,-,N/A,,Unknown,230,2012-11-20 14:30:00
4:00 PM,64.4,53.6,68,29.95,6.2,SW,5.8,-,N/A,,Unknown,220,2012-11-20 15:00:00
4:30 PM,64.4,48.2,56,29.98,6.2,Variable,2.3,-,N/A,,Unknown,0,2012-11-20 15:30:00
5:00 PM,60.8,46.4,59,29.98,6.2,Calm,Calm,-,N/A,,Unknown,0,2012-11-20 16:00:00
5:30 PM,59.0,44.6,59,29.98,6.2,Calm,Calm,-,N/A,,Unknown,0,2012-11-20 16:30:00
6:00 PM,59.0,42.8,55,29.98,6.2,Variable,2.3,-,N/A,,Unknown,0,2012-11-20 17:00:00
6:30 PM,55.4,42.8,63,29.98,6.2,Variable,1.2,-,N/A,,Unknown,0,2012-11-20 17:30:00
7:00 PM,53.6,44.6,72,29.98,6.2,Variable,2.3,-,N/A,,Unknown,0,2012-11-20 18:00:00
7:30 PM,51.8,44.6,76,30.01,6.2,NNE,3.5,-,N/A,,Unknown,30,2012-11-20 18:30:00
8:00 PM,53.6,48.2,82,30.01,3.1,Variable,1.2,-,N/A,,Mist,0,2012-11-20 19:00:00
8:30 PM,51.8,44.6,76,30.01,4.3,Calm,Calm,-,N/A,,Unknown,0,2012-11-20 19:30:00
9:00 PM,48.2,44.6,87,30.01,5.6,Variable,3.5,-,N/A,,Unknown,0,2012-11-20 20:00:00
9:30 PM,48.2,44.6,87,30.01,6.2,Variable,3.5,-,N/A,,Unknown,0,2012-11-20 20:30:00
10:00 PM,46.4,44.6,93,30.01,6.2,Variable,3.5,-,N/A,,Unknown,0,2012-11-20 21:00:00
10:30 PM,46.4,44.6,93,30.04,5.6,Variable,3.5,-,N/A,,Unknown,0,2012-11-20 21:30:00
10:52 PM,46.4,44.6,93,30.04,-9999.0,Calm,Calm,-,N/A,,Clear,0,2012-11-20 21:52:00
11:30 PM,44.6,42.8,93,30.01,3.7,NNE,3.5,-,N/A,,Unknown,30,2012-11-20 22:30:00